EGPE/INV METAR and TAF weather

Enter ICAO airport designator
Station Type Date Time Source
EGPE METAR 2020/04/07 15:20 UTC NOAA

EGPE 071520Z 22018KT 180V250 9999 FEW032 14/03 Q1021


Station Type Date Time Source
EGPE Decoded METAR 2020/04/07 15:20 UTC NOAA

Inverness / Dalcross, United Kingdom (EGPE) 57-32N 004-03W 0M
Apr 07, 2020 - 11:20 AM EDT / 2020.04.07 1520 UTC
Wind: from the SW (220 degrees) at 21 MPH (18 KT) (direction variable):0
Visibility: greater than 7 mile(s):0
Sky conditions: mostly clear
Temperature: 57 F (14 C)
Dew Point: 37 F (3 C)
Relative Humidity: 47%
Pressure (altimeter): 30.15 in. Hg (1021 hPa)
ob: EGPE 071520Z 22018KT 180V250 9999 FEW032 14/03 Q1021
cycle: 15

Station Type Date Time Source
EGPE TAF UTC NOAA

Error!

Example: see airport list